createdAt,value
2022-12-27T00:00:48.595Z,2.00
2022-12-27T00:03:15.050Z,2.00
2022-12-27T00:05:45.528Z,2.00
2022-12-27T00:08:12.543Z,2.22
2022-12-27T00:10:39.520Z,2.10
2022-12-27T00:13:06.784Z,2.47
2022-12-27T00:15:33.921Z,2.10
2022-12-27T00:18:00.221Z,2.20
2022-12-27T00:20:26.567Z,2.33
2022-12-27T00:22:52.922Z,2.38
2022-12-27T00:25:19.260Z,2.00
2022-12-27T00:27:45.645Z,2.08
2022-12-27T00:30:12.355Z,2.30
2022-12-27T00:32:38.893Z,2.65
2022-12-27T00:35:05.508Z,2.35
2022-12-27T00:37:31.860Z,2.38
2022-12-27T00:39:59.439Z,2.30
2022-12-27T00:42:25.703Z,2.47
2022-12-27T00:44:52.049Z,2.65
2022-12-27T00:47:18.337Z,2.25
2022-12-27T00:49:44.632Z,2.08
2022-12-27T00:52:10.945Z,2.55
2022-12-27T00:54:37.302Z,2.65
2022-12-27T00:57:03.638Z,2.75
2022-12-27T00:59:29.992Z,2.67
2022-12-27T01:01:56.416Z,2.35
2022-12-27T01:04:23.923Z,2.80
2022-12-27T01:06:50.202Z,2.80
2022-12-27T01:09:16.465Z,2.47
2022-12-27T01:11:42.821Z,3.17
2022-12-27T01:14:10.048Z,4.40
2022-12-27T01:16:36.401Z,3.50
2022-12-27T01:19:02.803Z,3.35
2022-12-27T01:21:30.764Z,3.08
2022-12-27T01:23:57.785Z,2.72
2022-12-27T01:26:24.602Z,3.00
2022-12-27T01:28:51.443Z,3.17
2022-12-27T01:31:19.194Z,3.15
2022-12-27T01:33:45.739Z,3.10
2022-12-27T01:36:14.272Z,3.30
2022-12-27T01:38:42.729Z,2.90
2022-12-27T01:41:38.516Z,2.90
2022-12-27T01:44:23.755Z,2.80
2022-12-27T01:46:50.214Z,2.80
2022-12-27T01:49:16.587Z,3.50
2022-12-27T01:51:42.920Z,4.00
2022-12-27T01:54:09.273Z,3.80
2022-12-27T01:56:35.602Z,2.72
2022-12-27T01:59:04.837Z,2.92
2022-12-27T02:01:33.927Z,2.40
2022-12-27T02:04:04.138Z,2.78
2022-12-27T02:06:31.564Z,2.40
2022-12-27T02:09:00.833Z,2.65
2022-12-27T02:11:48.493Z,2.78
2022-12-27T02:14:15.807Z,2.67
2022-12-27T02:16:42.158Z,2.70
2022-12-27T02:19:14.166Z,3.22
2022-12-27T02:21:59.181Z,3.20
2022-12-27T02:24:25.455Z,3.33
2022-12-27T02:27:01.986Z,3.22
2022-12-27T02:29:28.238Z,3.28
2022-12-27T02:32:05.541Z,2.92
2022-12-27T02:34:39.090Z,3.17
2022-12-27T02:37:09.461Z,2.40
2022-12-27T02:39:39.221Z,2.22
2022-12-27T02:42:25.020Z,2.20
2022-12-27T02:45:09.688Z,2.38
2022-12-27T02:47:55.642Z,2.13
2022-12-27T02:50:40.715Z,2.33
2022-12-27T02:53:12.608Z,2.17
2022-12-27T02:56:04.883Z,2.10
2022-12-27T02:58:36.045Z,2.35
2022-12-27T03:01:35.343Z,2.25
2022-12-27T03:04:11.590Z,2.20
2022-12-27T03:06:45.178Z,2.40
2022-12-27T03:09:34.665Z,2.13
2022-12-27T03:12:23.489Z,2.35
2022-12-27T03:15:11.296Z,2.10
2022-12-27T03:17:42.362Z,1.90
2022-12-27T03:20:31.562Z,1.85
2022-12-27T03:23:18.502Z,1.85
2022-12-27T03:25:46.960Z,2.47
2022-12-27T03:28:34.689Z,2.25
2022-12-27T03:31:22.326Z,2.35
2022-12-27T03:33:49.901Z,2.50
2022-12-27T03:36:42.349Z,2.22
2022-12-27T03:39:21.066Z,2.50
2022-12-27T03:42:14.801Z,2.78
2022-12-27T03:44:41.153Z,2.50
2022-12-27T03:47:12.533Z,3.00
2022-12-27T03:49:57.851Z,2.60
2022-12-27T03:52:36.492Z,2.80
2022-12-27T03:55:03.163Z,2.08
2022-12-27T03:57:29.624Z,2.50
2022-12-27T03:59:56.101Z,2.63
2022-12-27T04:02:22.725Z,2.55
2022-12-27T04:04:49.481Z,2.33
2022-12-27T04:07:16.198Z,2.30
2022-12-27T04:10:01.367Z,2.00
2022-12-27T04:12:46.477Z,2.15
2022-12-27T04:15:31.661Z,2.25
2022-12-27T04:18:16.889Z,2.45
2022-12-27T04:21:01.743Z,2.55
2022-12-27T04:23:46.831Z,3.30
2022-12-27T04:26:32.314Z,2.80
2022-12-27T04:29:17.507Z,2.95
2022-12-27T04:32:02.731Z,2.90
2022-12-27T04:34:44.328Z,2.95
2022-12-27T04:37:15.061Z,2.63
2022-12-27T04:39:41.874Z,3.20
2022-12-27T04:42:28.018Z,3.00
2022-12-27T04:45:15.390Z,2.63
2022-12-27T04:48:00.939Z,3.28
2022-12-27T04:50:47.845Z,3.15
2022-12-27T04:53:34.311Z,3.00
2022-12-27T04:56:01.026Z,3.13
2022-12-27T04:58:27.407Z,3.10
2022-12-27T05:01:14.429Z,2.97
2022-12-27T05:03:41.513Z,3.47
2022-12-27T05:06:07.936Z,3.70
2022-12-27T05:08:54.285Z,4.25
2022-12-27T05:11:39.508Z,3.67
2022-12-27T05:14:08.392Z,3.47
2022-12-27T05:16:36.436Z,4.55
2022-12-27T05:19:04.523Z,3.60
2022-12-27T05:21:30.798Z,3.92
2022-12-27T05:24:15.902Z,3.75
2022-12-27T05:26:42.201Z,3.30
2022-12-27T05:29:08.588Z,2.80
2022-12-27T05:31:35.031Z,3.45
2022-12-27T05:34:01.453Z,3.50
2022-12-27T05:36:27.841Z,3.55
2022-12-27T05:38:54.117Z,3.47
2022-12-27T05:41:20.496Z,3.45
2022-12-27T05:43:46.850Z,3.50
2022-12-27T05:46:17.840Z,3.75
2022-12-27T05:48:44.146Z,3.50
2022-12-27T05:51:12.339Z,3.45
2022-12-27T05:53:38.927Z,3.22
2022-12-27T05:56:05.308Z,3.47
2022-12-27T05:58:32.008Z,3.50
2022-12-27T06:00:58.891Z,3.72
2022-12-27T06:03:25.397Z,3.33
2022-12-27T06:05:51.815Z,3.33
2022-12-27T06:08:18.183Z,3.45
2022-12-27T06:10:44.513Z,3.33
2022-12-27T06:13:10.872Z,3.20
2022-12-27T06:15:37.226Z,3.55
2022-12-27T06:18:04.001Z,3.50
2022-12-27T06:20:30.643Z,3.75
2022-12-27T06:22:58.881Z,3.50
2022-12-27T06:25:25.247Z,3.38
2022-12-27T06:27:51.562Z,4.18
2022-12-27T06:30:17.845Z,3.40
2022-12-27T06:32:44.215Z,3.67
2022-12-27T06:35:11.207Z,4.53
2022-12-27T06:37:39.151Z,6.78
2022-12-27T06:40:05.808Z,5.97
2022-12-27T06:42:32.127Z,6.00
2022-12-27T06:44:58.454Z,5.90
2022-12-27T06:47:24.768Z,6.15
2022-12-27T06:49:51.043Z,5.47
2022-12-27T06:52:17.412Z,4.72
2022-12-27T06:54:43.716Z,4.18
2022-12-27T06:57:10.001Z,4.60
2022-12-27T06:59:36.406Z,4.78
2022-12-27T07:02:02.821Z,4.97
2022-12-27T07:04:29.281Z,4.28
2022-12-27T07:06:55.599Z,4.95
2022-12-27T07:09:21.891Z,4.45
2022-12-27T07:11:48.520Z,4.50
2022-12-27T07:14:14.819Z,4.50
2022-12-27T07:16:41.219Z,4.03
2022-12-27T07:19:09.703Z,4.35
2022-12-27T07:21:36.643Z,4.53
2022-12-27T07:24:03.045Z,4.53
2022-12-27T07:26:30.745Z,6.35
2022-12-27T07:28:58.709Z,6.75
2022-12-27T07:31:26.673Z,6.68
2022-12-27T07:33:53.255Z,6.63
2022-12-27T07:36:21.415Z,6.55
2022-12-27T07:38:48.337Z,8.60
2022-12-27T07:41:15.243Z,8.55
2022-12-27T07:43:44.470Z,8.88
2022-12-27T07:46:15.995Z,11.70
2022-12-27T07:48:42.870Z,9.23
2022-12-27T07:51:09.739Z,8.00
2022-12-27T07:53:36.390Z,6.25
2022-12-27T07:56:10.061Z,6.47
2022-12-27T07:58:40.723Z,7.15
2022-12-27T08:01:07.878Z,6.88
2022-12-27T08:03:36.042Z,6.80
2022-12-27T08:06:03.326Z,5.50
2022-12-27T08:08:36.764Z,5.22
2022-12-27T08:11:05.695Z,5.13
2022-12-27T08:13:32.488Z,5.15
2022-12-27T08:15:59.031Z,5.25
2022-12-27T08:18:25.480Z,5.18
2022-12-27T08:20:51.881Z,5.60
2022-12-27T08:23:18.315Z,5.35
2022-12-27T08:25:48.975Z,5.22
2022-12-27T08:28:17.065Z,5.30
2022-12-27T08:30:44.441Z,4.75
2022-12-27T08:33:11.418Z,4.82
2022-12-27T08:35:55.124Z,6.22
2022-12-27T08:38:22.201Z,6.30
2022-12-27T08:40:48.691Z,5.60
2022-12-27T08:43:15.102Z,5.90
2022-12-27T08:45:42.316Z,4.97
2022-12-27T08:48:10.457Z,5.72
2022-12-27T08:50:37.317Z,5.57
2022-12-27T08:53:06.472Z,5.00
2022-12-27T08:55:35.550Z,5.07
2022-12-27T08:58:03.905Z,5.25
2022-12-27T09:00:30.846Z,4.20
2022-12-27T09:02:57.817Z,5.00
2022-12-27T09:05:25.143Z,4.05
2022-12-27T09:07:52.196Z,3.47
2022-12-27T09:10:19.842Z,3.13
2022-12-27T09:12:46.286Z,3.10
2022-12-27T09:15:12.970Z,3.45
2022-12-27T09:17:40.125Z,2.88
2022-12-27T09:20:06.885Z,3.28
2022-12-27T09:22:33.408Z,3.03
2022-12-27T09:24:59.828Z,3.15
2022-12-27T09:27:26.423Z,2.72
2022-12-27T09:29:57.101Z,3.22
2022-12-27T09:32:27.372Z,2.70
2022-12-27T09:34:54.598Z,2.65
2022-12-27T09:37:20.958Z,3.15
2022-12-27T09:39:47.352Z,2.85
2022-12-27T09:45:25.953Z,2.80
2022-12-27T09:47:55.490Z,2.60
2022-12-27T09:50:27.568Z,2.97
2022-12-27T09:52:58.671Z,3.08
2022-12-27T09:55:37.769Z,2.83
2022-12-27T09:58:20.293Z,2.50
2022-12-27T10:00:49.365Z,2.58
2022-12-27T10:03:15.756Z,2.90
2022-12-27T10:05:45.986Z,2.95
2022-12-27T10:08:28.049Z,3.22
2022-12-27T10:11:07.606Z,3.10
2022-12-27T10:13:48.745Z,3.17
2022-12-27T10:16:31.352Z,3.47
2022-12-27T10:19:17.200Z,3.60
2022-12-27T10:21:51.587Z,3.40
2022-12-27T10:24:21.831Z,3.40
2022-12-27T10:26:49.261Z,4.07
2022-12-27T10:29:16.526Z,5.30
2022-12-27T10:31:43.637Z,3.53
2022-12-27T10:34:14.043Z,3.70
2022-12-27T10:36:42.100Z,3.65
2022-12-27T10:39:19.235Z,3.20
2022-12-27T10:42:05.286Z,5.25
2022-12-27T10:44:32.478Z,3.85
2022-12-27T10:46:59.907Z,3.17
2022-12-27T10:49:28.383Z,2.92
2022-12-27T10:52:06.571Z,3.03
2022-12-27T10:54:33.222Z,2.80
2022-12-27T10:57:17.429Z,3.40
2022-12-27T10:59:44.178Z,3.30
2022-12-27T11:02:18.975Z,4.05
2022-12-27T11:04:58.961Z,4.00
2022-12-27T11:07:29.456Z,3.63
2022-12-27T11:10:07.762Z,3.85
2022-12-27T11:12:36.166Z,3.65
2022-12-27T11:15:13.705Z,3.30
2022-12-27T11:17:48.765Z,3.03
2022-12-27T11:20:18.330Z,3.05
2022-12-27T11:22:53.152Z,3.30
2022-12-27T11:25:19.939Z,3.42
2022-12-27T11:27:50.954Z,3.05
2022-12-27T11:30:43.884Z,3.40
2022-12-27T11:33:21.115Z,2.85
2022-12-27T11:35:52.644Z,2.88
2022-12-27T11:38:27.179Z,3.42
2022-12-27T11:41:00.388Z,3.58
2022-12-27T11:43:28.367Z,3.67
2022-12-27T11:45:55.841Z,3.60
2022-12-27T11:48:27.584Z,3.30
2022-12-27T11:51:03.682Z,3.20
2022-12-27T11:53:55.843Z,3.30
2022-12-27T11:56:37.666Z,3.15
2022-12-27T11:59:16.282Z,3.03
2022-12-27T12:02:19.109Z,2.90
2022-12-27T12:04:51.931Z,3.20
2022-12-27T12:07:18.468Z,3.03
2022-12-27T12:09:44.866Z,3.60
2022-12-27T12:12:17.382Z,3.45
2022-12-27T12:14:59.169Z,3.83
2022-12-27T12:17:31.116Z,3.55
2022-12-27T12:20:07.278Z,3.30
2022-12-27T12:22:33.731Z,3.28
2022-12-27T12:24:59.997Z,3.30
2022-12-27T12:27:29.292Z,3.20
2022-12-27T12:30:15.559Z,3.33
2022-12-27T12:32:50.713Z,2.92
2022-12-27T12:35:36.479Z,3.40
2022-12-27T12:38:03.702Z,3.90
2022-12-27T12:40:39.678Z,3.25
2022-12-27T12:43:25.253Z,3.45
2022-12-27T12:46:10.665Z,3.15
2022-12-27T12:48:55.743Z,2.75
2022-12-27T12:51:22.364Z,2.90
2022-12-27T12:53:48.732Z,3.53
2022-12-27T12:56:21.143Z,2.78
2022-12-27T12:58:50.658Z,2.80
2022-12-27T13:01:34.450Z,2.58
2022-12-27T13:04:07.114Z,2.92
2022-12-27T13:06:33.789Z,2.60
2022-12-27T13:09:12.572Z,2.50
2022-12-27T13:11:47.601Z,2.63
2022-12-27T13:14:29.326Z,2.20
2022-12-27T13:16:55.682Z,2.50
2022-12-27T13:19:38.024Z,2.42
2022-12-27T13:22:04.494Z,4.40
2022-12-27T13:24:54.915Z,6.63
2022-12-27T13:27:24.368Z,2.45
2022-12-27T13:30:09.704Z,2.53
2022-12-27T13:32:36.238Z,2.30
2022-12-27T13:35:24.301Z,2.40
2022-12-27T13:38:09.453Z,2.78
2022-12-27T13:40:38.959Z,2.67
2022-12-27T13:43:12.278Z,2.75
2022-12-27T13:45:46.465Z,2.97
2022-12-27T13:48:25.021Z,2.78
2022-12-27T13:51:04.555Z,2.85
2022-12-27T13:53:40.603Z,2.85
2022-12-27T13:56:51.824Z,3.03
2022-12-27T13:59:06.018Z,3.38
2022-12-27T14:01:32.672Z,3.45
2022-12-27T14:04:17.778Z,3.28
2022-12-27T14:07:08.818Z,3.28
2022-12-27T14:09:50.687Z,3.22
2022-12-27T14:12:36.198Z,3.25
2022-12-27T14:15:04.973Z,2.83
2022-12-27T14:17:32.245Z,3.92
2022-12-27T14:20:19.233Z,3.35
2022-12-27T14:23:15.029Z,3.75
2022-12-27T14:25:47.374Z,3.70
2022-12-27T14:28:21.789Z,3.85
2022-12-27T14:30:54.219Z,3.30
2022-12-27T14:33:39.106Z,2.97
2022-12-27T14:36:05.655Z,3.00
2022-12-27T14:38:47.395Z,3.10
2022-12-27T14:41:32.124Z,3.10
2022-12-27T14:44:17.342Z,3.20
2022-12-27T14:46:53.348Z,3.20
2022-12-27T14:49:41.315Z,2.95
2022-12-27T14:52:26.505Z,3.22
2022-12-27T14:55:08.387Z,3.25
2022-12-27T14:57:51.490Z,3.30
2022-12-27T15:00:19.624Z,3.83
2022-12-27T15:02:52.861Z,3.38
2022-12-27T15:05:43.300Z,3.80
2022-12-27T15:08:25.436Z,4.05
2022-12-27T15:10:51.680Z,3.40
2022-12-27T15:13:18.991Z,3.83
2022-12-27T15:16:18.064Z,3.67
2022-12-27T15:18:51.594Z,3.35
2022-12-27T15:21:39.880Z,3.80
2022-12-27T15:24:23.123Z,4.22
2022-12-27T15:27:00.507Z,3.58
2022-12-27T15:29:39.134Z,4.30
2022-12-27T15:32:12.884Z,4.03
2022-12-27T15:34:55.027Z,4.15
2022-12-27T15:37:40.180Z,4.55
2022-12-27T15:40:25.187Z,4.65
2022-12-27T15:43:06.895Z,4.00
2022-12-27T15:45:48.570Z,4.03
2022-12-27T15:48:27.985Z,3.92
2022-12-27T15:50:58.542Z,4.22
2022-12-27T15:53:43.691Z,3.97
2022-12-27T15:56:11.104Z,4.50
2022-12-27T15:58:37.648Z,4.63
2022-12-27T16:01:23.630Z,5.35
2022-12-27T16:03:52.501Z,5.30
2022-12-27T16:06:45.275Z,4.88
2022-12-27T16:09:20.745Z,5.47
2022-12-27T16:11:58.358Z,5.15
2022-12-27T16:14:28.884Z,5.55
2022-12-27T16:16:58.632Z,5.70
2022-12-27T16:19:38.488Z,5.97
2022-12-27T16:22:18.169Z,5.55
2022-12-27T16:24:44.571Z,5.10
2022-12-27T16:27:20.941Z,5.97
2022-12-27T16:29:47.285Z,5.90
2022-12-27T16:32:19.330Z,6.13
2022-12-27T16:34:46.758Z,6.15
2022-12-27T16:37:24.654Z,5.55
2022-12-27T16:40:09.576Z,6.90
2022-12-27T16:42:54.267Z,5.35
2022-12-27T16:45:26.731Z,6.05
2022-12-27T16:48:02.511Z,6.00
2022-12-27T16:50:28.800Z,5.53
2022-12-27T16:53:01.647Z,6.00
2022-12-27T16:55:27.926Z,5.68
2022-12-27T16:58:14.219Z,6.22
2022-12-27T17:00:56.891Z,6.03
2022-12-27T17:03:23.193Z,5.07
2022-12-27T17:06:29.881Z,5.55
2022-12-27T17:08:36.572Z,5.68
2022-12-27T17:11:04.576Z,6.07
2022-12-27T17:13:36.995Z,5.35
2022-12-27T17:16:12.649Z,5.55
2022-12-27T17:18:49.418Z,5.50
2022-12-27T17:21:23.358Z,5.22
2022-12-27T17:23:56.000Z,6.13
2022-12-27T17:26:22.279Z,5.72
2022-12-27T17:28:55.247Z,5.50
2022-12-27T17:31:33.854Z,5.80
2022-12-27T17:34:09.031Z,5.97
2022-12-27T17:36:35.371Z,6.60
2022-12-27T17:39:01.621Z,6.30
2022-12-27T17:41:49.714Z,6.30
2022-12-27T17:44:40.300Z,6.53
2022-12-27T17:47:21.799Z,7.97
2022-12-27T17:49:48.738Z,7.80
2022-12-27T17:52:35.015Z,6.95
2022-12-27T17:55:46.431Z,6.28
2022-12-27T17:58:16.362Z,6.70
2022-12-27T18:00:54.893Z,6.78
2022-12-27T18:03:22.266Z,6.22
2022-12-27T18:05:49.465Z,7.03
2022-12-27T18:08:24.469Z,7.18
2022-12-27T18:10:50.946Z,7.28
2022-12-27T18:13:18.761Z,7.13
2022-12-27T18:15:46.950Z,6.70
2022-12-27T18:18:18.781Z,7.00
2022-12-27T18:20:45.067Z,8.13
2022-12-27T18:23:11.832Z,11.30
2022-12-27T18:25:40.928Z,11.63
2022-12-27T18:28:18.157Z,30.33
2022-12-27T18:30:51.073Z,21.67
2022-12-27T18:33:17.658Z,17.13
2022-12-27T18:35:46.906Z,12.57
2022-12-27T18:38:16.950Z,12.38
2022-12-27T18:40:43.646Z,9.20
2022-12-27T18:43:13.316Z,8.80
2022-12-27T18:45:39.681Z,9.80
2022-12-27T18:48:09.311Z,9.07
2022-12-27T18:50:35.645Z,9.43
2022-12-27T18:53:04.169Z,8.43
2022-12-27T18:55:32.002Z,9.32
2022-12-27T18:58:24.880Z,8.85
2022-12-27T19:01:26.587Z,8.65
2022-12-27T19:04:11.974Z,9.27
2022-12-27T19:06:38.290Z,11.50
2022-12-27T19:09:06.030Z,10.77
2022-12-27T19:11:36.337Z,10.45
2022-12-27T19:14:04.910Z,10.52
2022-12-27T19:16:34.229Z,11.70
2022-12-27T19:19:19.499Z,11.60
2022-12-27T19:21:45.948Z,16.10
2022-12-27T19:24:30.407Z,14.27
2022-12-27T19:26:57.623Z,12.57
2022-12-27T19:29:27.021Z,13.80
2022-12-27T19:31:58.325Z,12.60
2022-12-27T19:34:25.893Z,11.43
2022-12-27T19:36:53.161Z,12.15
2022-12-27T19:39:21.041Z,12.05
2022-12-27T19:41:48.321Z,12.45
2022-12-27T19:44:14.904Z,12.98
2022-12-27T19:46:41.283Z,12.25
2022-12-27T19:49:40.203Z,12.43
2022-12-27T19:51:57.800Z,13.45
2022-12-27T19:54:27.775Z,12.80
2022-12-27T19:56:54.961Z,13.30
2022-12-27T19:59:22.581Z,12.43
2022-12-27T20:01:49.405Z,13.63
2022-12-27T20:04:16.557Z,13.93
2022-12-27T20:06:43.561Z,14.57
2022-12-27T20:09:12.789Z,14.52
2022-12-27T20:11:39.056Z,14.32
2022-12-27T20:14:05.389Z,16.17
2022-12-27T20:16:31.784Z,15.23
2022-12-27T20:18:58.132Z,14.93
2022-12-27T20:21:24.507Z,15.10
2022-12-27T20:23:51.023Z,15.73
2022-12-27T20:26:19.923Z,13.40
2022-12-27T20:28:46.860Z,11.73
2022-12-27T20:31:14.059Z,11.50
2022-12-27T20:33:40.513Z,11.07
2022-12-27T20:36:07.663Z,11.90
2022-12-27T20:38:34.106Z,11.80
2022-12-27T20:41:08.533Z,11.82
2022-12-27T20:43:35.390Z,11.98
2022-12-27T20:46:05.956Z,12.65
2022-12-27T20:48:32.355Z,11.90
2022-12-27T20:50:58.653Z,12.45
2022-12-27T20:53:27.766Z,12.20
2022-12-27T20:55:57.859Z,11.32
2022-12-27T20:58:24.158Z,11.95
2022-12-27T21:00:50.417Z,13.98
2022-12-27T21:03:16.876Z,13.07
2022-12-27T21:05:43.266Z,12.63
2022-12-27T21:08:09.631Z,13.07
2022-12-27T21:10:35.977Z,12.35
2022-12-27T21:13:02.404Z,12.20
2022-12-27T21:15:31.129Z,12.38
2022-12-27T21:17:57.694Z,11.45
2022-12-27T21:20:23.995Z,12.95
2022-12-27T21:22:50.368Z,11.55
2022-12-27T21:25:16.746Z,11.10
2022-12-27T21:27:43.214Z,9.48
2022-12-27T21:30:10.667Z,9.23
2022-12-27T21:32:37.025Z,7.88
2022-12-27T21:35:03.341Z,8.35
2022-12-27T21:37:29.807Z,7.30
2022-12-27T21:39:56.195Z,6.70
2022-12-27T21:42:22.559Z,7.40
2022-12-27T21:44:48.962Z,6.72
2022-12-27T21:47:15.621Z,6.88
2022-12-27T21:49:41.963Z,6.10
2022-12-27T21:52:08.425Z,7.85
2022-12-27T21:54:36.753Z,6.45
2022-12-27T21:57:03.418Z,5.82
2022-12-27T21:59:29.819Z,6.35
2022-12-27T22:01:57.453Z,6.57
2022-12-27T22:04:23.805Z,7.00
2022-12-27T22:06:50.226Z,6.28
2022-12-27T22:09:16.584Z,6.55
2022-12-27T22:11:42.984Z,5.93
2022-12-27T22:14:09.389Z,6.60
2022-12-27T22:16:36.906Z,6.20
2022-12-27T22:19:12.879Z,5.82
2022-12-27T22:21:39.739Z,5.82
2022-12-27T22:24:06.157Z,6.15
2022-12-27T22:26:38.927Z,5.63
2022-12-27T22:29:05.737Z,6.15
2022-12-27T22:31:35.252Z,6.50
2022-12-27T22:34:03.011Z,6.45
2022-12-27T22:36:29.827Z,6.32
2022-12-27T22:38:56.594Z,7.15
2022-12-27T22:41:25.996Z,6.82
2022-12-27T22:43:56.564Z,7.18
2022-12-27T22:46:23.556Z,6.40
2022-12-27T22:48:51.111Z,7.10
2022-12-27T22:51:19.760Z,6.65
2022-12-27T22:53:46.365Z,7.03
2022-12-27T22:56:17.208Z,7.40
2022-12-27T22:58:43.736Z,7.45
2022-12-27T23:01:11.051Z,7.55
2022-12-27T23:03:37.391Z,7.13
2022-12-27T23:06:03.767Z,8.45
2022-12-27T23:08:30.197Z,7.78
2022-12-27T23:11:01.180Z,8.55
2022-12-27T23:13:27.515Z,9.25
2022-12-27T23:15:58.075Z,8.65
2022-12-27T23:18:24.589Z,8.27
2022-12-27T23:21:20.324Z,9.48
2022-12-27T23:23:37.318Z,9.00
2022-12-27T23:26:05.111Z,9.25
2022-12-27T23:28:31.523Z,10.13
2022-12-27T23:30:57.896Z,9.07
2022-12-27T23:33:24.192Z,9.52
2022-12-27T23:35:50.528Z,9.70
2022-12-27T23:38:16.790Z,10.00
2022-12-27T23:40:43.041Z,9.27
2022-12-27T23:43:41.941Z,10.18
2022-12-27T23:45:55.609Z,9.35
2022-12-27T23:48:21.965Z,9.07
2022-12-27T23:50:48.359Z,9.20
2022-12-27T23:53:14.740Z,9.05
2022-12-27T23:55:41.022Z,9.50
2022-12-27T23:58:07.360Z,10.63
